sensor_id;sensor_type;location;lat;lon;timestamp;P1;durP1;ratioP1;P2;durP2;ratioP2
19846;SDS011;10084;50.518;8.588;2023-03-03T05:30:48;1.93;;;1.83;;
19846;SDS011;10084;50.518;8.588;2023-03-03T05:33:15;1.93;;;1.83;;
19846;SDS011;10084;50.518;8.588;2023-03-03T05:35:41;2.60;;;2.40;;
19846;SDS011;10084;50.518;8.588;2023-03-03T05:38:08;2.83;;;2.63;;
19846;SDS011;10084;50.518;8.588;2023-03-03T05:40:33;2.43;;;2.27;;
19846;SDS011;10084;50.518;8.588;2023-03-03T05:42:59;2.63;;;2.43;;
19846;SDS011;10084;50.518;8.588;2023-03-03T05:45:25;2.83;;;2.63;;
19846;SDS011;10084;50.518;8.588;2023-03-03T05:47:51;2.63;;;2.43;;
19846;SDS011;10084;50.518;8.588;2023-03-03T05:50:18;2.63;;;2.43;;
19846;SDS011;10084;50.518;8.588;2023-03-03T05:52:49;3.13;;;2.83;;
19846;SDS011;10084;50.518;8.588;2023-03-03T05:55:16;2.60;;;2.40;;
19846;SDS011;10084;50.518;8.588;2023-03-03T05:57:42;3.03;;;2.73;;
19846;SDS011;10084;50.518;8.588;2023-03-03T06:00:08;2.57;;;2.37;;
19846;SDS011;10084;50.518;8.588;2023-03-03T06:02:38;2.37;;;2.17;;
19846;SDS011;10084;50.518;8.588;2023-03-03T06:05:05;3.10;;;2.90;;
19846;SDS011;10084;50.518;8.588;2023-03-03T06:07:31;3.10;;;2.90;;
19846;SDS011;10084;50.518;8.588;2023-03-03T06:09:57;3.07;;;2.87;;
19846;SDS011;10084;50.518;8.588;2023-03-03T06:12:23;2.80;;;2.60;;
19846;SDS011;10084;50.518;8.588;2023-03-03T06:14:49;2.43;;;2.33;;
19846;SDS011;10084;50.518;8.588;2023-03-03T06:17:15;2.80;;;2.60;;
19846;SDS011;10084;50.518;8.588;2023-03-03T06:19:40;2.43;;;2.23;;
19846;SDS011;10084;50.518;8.588;2023-03-03T06:22:06;2.80;;;2.33;;
19846;SDS011;10084;50.518;8.588;2023-03-03T06:24:33;3.03;;;2.70;;
19846;SDS011;10084;50.518;8.588;2023-03-03T06:26:59;3.17;;;2.80;;
19846;SDS011;10084;50.518;8.588;2023-03-03T06:29:25;2.37;;;2.10;;
19846;SDS011;10084;50.518;8.588;2023-03-03T06:31:52;2.80;;;2.60;;
19846;SDS011;10084;50.518;8.588;2023-03-03T06:34:18;3.00;;;2.80;;
19846;SDS011;10084;50.518;8.588;2023-03-03T06:36:44;2.80;;;2.60;;
19846;SDS011;10084;50.518;8.588;2023-03-03T06:39:10;2.87;;;2.67;;
19846;SDS011;10084;50.518;8.588;2023-03-03T06:41:36;2.17;;;2.07;;
19846;SDS011;10084;50.518;8.588;2023-03-03T06:44:01;2.40;;;2.23;;
19846;SDS011;10084;50.518;8.588;2023-03-03T06:46:27;2.43;;;2.23;;
19846;SDS011;10084;50.518;8.588;2023-03-03T06:48:54;2.47;;;2.27;;
19846;SDS011;10084;50.518;8.588;2023-03-03T06:51:28;2.43;;;2.20;;
19846;SDS011;10084;50.518;8.588;2023-03-03T06:53:56;2.23;;;2.10;;
19846;SDS011;10084;50.518;8.588;2023-03-03T06:56:24;2.20;;;2.10;;
19846;SDS011;10084;50.518;8.588;2023-03-03T06:58:55;2.50;;;2.30;;
19846;SDS011;10084;50.518;8.588;2023-03-03T07:01:23;2.60;;;2.40;;
19846;SDS011;10084;50.518;8.588;2023-03-03T07:03:49;2.70;;;2.50;;
19846;SDS011;10084;50.518;8.588;2023-03-03T07:06:19;2.13;;;1.93;;
19846;SDS011;10084;50.518;8.588;2023-03-03T07:08:47;4.33;;;2.13;;
19846;SDS011;10084;50.518;8.588;2023-03-03T07:11:15;6.77;;;2.40;;
19846;SDS011;10084;50.518;8.588;2023-03-03T07:13:51;2.13;;;2.03;;
19846;SDS011;10084;50.518;8.588;2023-03-03T07:16:21;2.43;;;2.23;;
19846;SDS011;10084;50.518;8.588;2023-03-03T07:19:00;2.43;;;2.23;;
19846;SDS011;10084;50.518;8.588;2023-03-03T07:21:32;2.30;;;2.10;;
19846;SDS011;10084;50.518;8.588;2023-03-03T07:24:00;2.87;;;2.67;;
19846;SDS011;10084;50.518;8.588;2023-03-03T07:26:42;2.57;;;2.00;;
19846;SDS011;10084;50.518;8.588;2023-03-03T07:31:40;4.47;;;2.40;;
19846;SDS011;10084;50.518;8.588;2023-03-03T07:34:19;2.30;;;2.20;;
19846;SDS011;10084;50.518;8.588;2023-03-03T07:36:48;2.27;;;2.10;;
19846;SDS011;10084;50.518;8.588;2023-03-03T07:41:49;2.57;;;2.37;;
19846;SDS011;10084;50.518;8.588;2023-03-03T07:44:24;2.33;;;2.13;;
19846;SDS011;10084;50.518;8.588;2023-03-03T07:46:59;2.53;;;2.33;;
19846;SDS011;10084;50.518;8.588;2023-03-03T07:49:42;3.50;;;2.10;;
19846;SDS011;10084;50.518;8.588;2023-03-03T07:54:54;2.37;;;2.17;;
19846;SDS011;10084;50.518;8.588;2023-03-03T07:57:27;2.20;;;2.00;;
19846;SDS011;10084;50.518;8.588;2023-03-03T08:00:00;2.07;;;1.97;;
19846;SDS011;10084;50.518;8.588;2023-03-03T08:10:34;2.20;;;2.10;;
19846;SDS011;10084;50.518;8.588;2023-03-03T08:13:27;1.90;;;1.80;;
19846;SDS011;10084;50.518;8.588;2023-03-03T08:18:34;1.90;;;1.80;;
19846;SDS011;10084;50.518;8.588;2023-03-03T08:21:06;1.70;;;1.60;;
19846;SDS011;10084;50.518;8.588;2023-03-03T08:23:40;2.13;;;1.93;;
19846;SDS011;10084;50.518;8.588;2023-03-03T08:26:06;1.80;;;1.70;;
19846;SDS011;10084;50.518;8.588;2023-03-03T08:28:32;1.87;;;1.77;;
19846;SDS011;10084;50.518;8.588;2023-03-03T08:30:58;4.93;;;2.67;;
19846;SDS011;10084;50.518;8.588;2023-03-03T08:33:24;6.03;;;5.57;;
19846;SDS011;10084;50.518;8.588;2023-03-03T08:35:50;5.97;;;5.57;;
19846;SDS011;10084;50.518;8.588;2023-03-03T08:38:17;6.43;;;5.97;;
19846;SDS011;10084;50.518;8.588;2023-03-03T08:40:44;7.77;;;6.93;;
19846;SDS011;10084;50.518;8.588;2023-03-03T08:43:10;6.83;;;6.33;;
19846;SDS011;10084;50.518;8.588;2023-03-03T08:45:42;6.53;;;6.03;;
19846;SDS011;10084;50.518;8.588;2023-03-03T08:48:10;4.90;;;4.40;;
19846;SDS011;10084;50.518;8.588;2023-03-03T08:50:36;4.93;;;4.63;;
19846;SDS011;10084;50.518;8.588;2023-03-03T08:53:03;5.30;;;4.67;;
19846;SDS011;10084;50.518;8.588;2023-03-03T08:55:29;5.13;;;4.73;;
19846;SDS011;10084;50.518;8.588;2023-03-03T08:57:55;5.20;;;4.80;;
19846;SDS011;10084;50.518;8.588;2023-03-03T09:00:21;4.73;;;4.33;;
19846;SDS011;10084;50.518;8.588;2023-03-03T09:02:48;5.67;;;5.17;;
19846;SDS011;10084;50.518;8.588;2023-03-03T09:05:15;4.23;;;3.93;;
19846;SDS011;10084;50.518;8.588;2023-03-03T09:07:42;5.27;;;4.77;;
19846;SDS011;10084;50.518;8.588;2023-03-03T09:10:10;5.43;;;4.93;;
19846;SDS011;10084;50.518;8.588;2023-03-03T09:12:38;6.07;;;5.17;;
19846;SDS011;10084;50.518;8.588;2023-03-03T09:15:27;5.57;;;5.07;;
19846;SDS011;10084;50.518;8.588;2023-03-03T09:17:53;4.67;;;4.30;;
19846;SDS011;10084;50.518;8.588;2023-03-03T09:22:51;4.40;;;4.10;;
19846;SDS011;10084;50.518;8.588;2023-03-03T09:25:38;4.43;;;4.13;;
19846;SDS011;10084;50.518;8.588;2023-03-03T09:28:04;4.87;;;4.47;;
19846;SDS011;10084;50.518;8.588;2023-03-03T09:31:00;4.50;;;4.10;;
19846;SDS011;10084;50.518;8.588;2023-03-03T09:33:30;4.90;;;4.50;;
19846;SDS011;10084;50.518;8.588;2023-03-03T09:38:54;4.93;;;4.53;;
19846;SDS011;10084;50.518;8.588;2023-03-03T09:44:18;4.87;;;4.47;;
19846;SDS011;10084;50.518;8.588;2023-03-03T09:49:31;4.93;;;4.53;;
19846;SDS011;10084;50.518;8.588;2023-03-03T09:52:07;4.37;;;4.07;;
19846;SDS011;10084;50.518;8.588;2023-03-03T09:55:03;5.33;;;4.93;;
19846;SDS011;10084;50.518;8.588;2023-03-03T10:03:29;5.07;;;4.67;;
19846;SDS011;10084;50.518;8.588;2023-03-03T10:06:26;4.30;;;3.97;;
19846;SDS011;10084;50.518;8.588;2023-03-03T10:09:15;4.33;;;3.93;;
19846;SDS011;10084;50.518;8.588;2023-03-03T10:12:19;4.90;;;4.50;;
19846;SDS011;10084;50.518;8.588;2023-03-03T10:14:51;4.93;;;4.53;;
19846;SDS011;10084;50.518;8.588;2023-03-03T10:42:51;3.73;;;3.43;;
19846;SDS011;10084;50.518;8.588;2023-03-03T10:45:42;3.60;;;3.30;;
19846;SDS011;10084;50.518;8.588;2023-03-03T10:51:09;3.37;;;3.07;;
19846;SDS011;10084;50.518;8.588;2023-03-03T10:56:20;2.93;;;2.73;;
19846;SDS011;10084;50.518;8.588;2023-03-03T10:59:13;3.17;;;2.87;;
19846;SDS011;10084;50.518;8.588;2023-03-03T11:04:53;3.13;;;2.93;;
19846;SDS011;10084;50.518;8.588;2023-03-03T11:07:40;2.93;;;2.70;;
19846;SDS011;10084;50.518;8.588;2023-03-03T11:10:57;3.10;;;2.90;;
19846;SDS011;10084;50.518;8.588;2023-03-03T11:13:08;4.50;;;4.10;;
19846;SDS011;10084;50.518;8.588;2023-03-03T11:21:22;4.50;;;4.10;;
19846;SDS011;10084;50.518;8.588;2023-03-03T11:24:11;4.37;;;4.07;;
19846;SDS011;10084;50.518;8.588;2023-03-03T11:26:54;4.10;;;3.83;;
19846;SDS011;10084;50.518;8.588;2023-03-03T11:37:23;5.00;;;4.67;;
19846;SDS011;10084;50.518;8.588;2023-03-03T11:40:21;5.07;;;4.70;;
19846;SDS011;10084;50.518;8.588;2023-03-03T11:42:54;5.13;;;4.63;;
19846;SDS011;10084;50.518;8.588;2023-03-03T11:45:36;5.37;;;4.30;;
19846;SDS011;10084;50.518;8.588;2023-03-03T11:48:13;4.67;;;4.27;;
19846;SDS011;10084;50.518;8.588;2023-03-03T11:51:02;5.13;;;4.63;;
19846;SDS011;10084;50.518;8.588;2023-03-03T11:56:27;5.10;;;4.70;;
19846;SDS011;10084;50.518;8.588;2023-03-03T12:01:35;5.07;;;4.67;;
19846;SDS011;10084;50.518;8.588;2023-03-03T12:04:10;4.57;;;4.17;;
19846;SDS011;10084;50.518;8.588;2023-03-03T12:06:46;5.70;;;5.00;;
19846;SDS011;10084;50.518;8.588;2023-03-03T12:09:37;5.43;;;5.03;;
19846;SDS011;10084;50.518;8.588;2023-03-03T12:17:57;5.10;;;4.70;;
19846;SDS011;10084;50.518;8.588;2023-03-03T12:28:37;4.93;;;4.53;;
19846;SDS011;10084;50.518;8.588;2023-03-03T12:31:14;5.50;;;4.37;;
19846;SDS011;10084;50.518;8.588;2023-03-03T12:33:57;4.20;;;3.80;;
19846;SDS011;10084;50.518;8.588;2023-03-03T12:39:57;4.37;;;3.97;;
19846;SDS011;10084;50.518;8.588;2023-03-03T12:46:01;3.60;;;3.30;;
19846;SDS011;10084;50.518;8.588;2023-03-03T12:48:41;3.97;;;3.67;;
19846;SDS011;10084;50.518;8.588;2023-03-03T12:56:39;3.43;;;3.23;;
19846;SDS011;10084;50.518;8.588;2023-03-03T12:59:19;3.73;;;3.43;;
19846;SDS011;10084;50.518;8.588;2023-03-03T13:10:03;3.83;;;3.43;;
19846;SDS011;10084;50.518;8.588;2023-03-03T13:12:49;3.83;;;3.53;;
19846;SDS011;10084;50.518;8.588;2023-03-03T13:21:23;5.77;;;3.57;;
19846;SDS011;10084;50.518;8.588;2023-03-03T13:29:40;4.17;;;3.87;;
19846;SDS011;10084;50.518;8.588;2023-03-03T13:32:19;4.70;;;3.30;;
19846;SDS011;10084;50.518;8.588;2023-03-03T13:34:52;3.87;;;3.57;;
19846;SDS011;10084;50.518;8.588;2023-03-03T13:37:31;3.47;;;3.27;;
19846;SDS011;10084;50.518;8.588;2023-03-03T13:40:05;3.70;;;3.43;;
19846;SDS011;10084;50.518;8.588;2023-03-03T13:42:39;4.43;;;4.13;;
19846;SDS011;10084;50.518;8.588;2023-03-03T13:48:05;4.03;;;3.73;;
19846;SDS011;10084;50.518;8.588;2023-03-03T13:50:57;3.93;;;3.60;;
19846;SDS011;10084;50.518;8.588;2023-03-03T13:53:41;3.70;;;3.40;;
19846;SDS011;10084;50.518;8.588;2023-03-03T14:07:11;3.57;;;3.27;;
19846;SDS011;10084;50.518;8.588;2023-03-03T14:13:02;5.03;;;4.10;;
19846;SDS011;10084;50.518;8.588;2023-03-03T14:18:38;2.80;;;2.60;;
19846;SDS011;10084;50.518;8.588;2023-03-03T14:24:18;4.00;;;2.53;;
19846;SDS011;10084;50.518;8.588;2023-03-03T14:26:57;3.20;;;2.90;;
19846;SDS011;10084;50.518;8.588;2023-03-03T14:32:19;2.70;;;2.50;;
19846;SDS011;10084;50.518;8.588;2023-03-03T14:34:55;1.93;;;1.73;;
19846;SDS011;10084;50.518;8.588;2023-03-03T14:37:27;2.00;;;1.90;;
19846;SDS011;10084;50.518;8.588;2023-03-03T14:40:13;2.53;;;2.27;;
19846;SDS011;10084;50.518;8.588;2023-03-03T14:42:48;2.30;;;2.10;;
19846;SDS011;10084;50.518;8.588;2023-03-03T14:45:22;4.30;;;2.17;;
19846;SDS011;10084;50.518;8.588;2023-03-03T14:48:05;2.87;;;2.67;;
19846;SDS011;10084;50.518;8.588;2023-03-03T14:50:47;2.13;;;1.93;;
19846;SDS011;10084;50.518;8.588;2023-03-03T14:53:29;2.40;;;2.20;;
19846;SDS011;10084;50.518;8.588;2023-03-03T14:58:41;2.63;;;2.43;;
19846;SDS011;10084;50.518;8.588;2023-03-03T15:01:29;2.70;;;2.50;;
19846;SDS011;10084;50.518;8.588;2023-03-03T15:04:04;2.60;;;2.40;;
19846;SDS011;10084;50.518;8.588;2023-03-03T15:06:49;2.83;;;2.63;;
19846;SDS011;10084;50.518;8.588;2023-03-03T15:12:19;3.00;;;2.80;;
19846;SDS011;10084;50.518;8.588;2023-03-03T15:14:47;2.47;;;1.80;;
19846;SDS011;10084;50.518;8.588;2023-03-03T15:17:28;2.00;;;1.90;;
19846;SDS011;10084;50.518;8.588;2023-03-03T15:23:26;2.10;;;1.90;;
19846;SDS011;10084;50.518;8.588;2023-03-03T15:26:20;2.27;;;2.07;;
19846;SDS011;10084;50.518;8.588;2023-03-03T15:29:12;2.33;;;2.13;;
19846;SDS011;10084;50.518;8.588;2023-03-03T15:31:46;2.13;;;1.93;;
19846;SDS011;10084;50.518;8.588;2023-03-03T15:42:47;2.67;;;2.47;;
19846;SDS011;10084;50.518;8.588;2023-03-03T15:50:38;2.03;;;1.90;;
19846;SDS011;10084;50.518;8.588;2023-03-03T15:53:13;2.07;;;1.87;;
19846;SDS011;10084;50.518;8.588;2023-03-03T16:02:20;1.53;;;1.27;;
19846;SDS011;10084;50.518;8.588;2023-03-03T16:05:02;2.77;;;1.10;;
19846;SDS011;10084;50.518;8.588;2023-03-03T16:07:49;1.67;;;1.20;;
19846;SDS011;10084;50.518;8.588;2023-03-03T16:27:57;0.87;;;0.87;;
19846;SDS011;10084;50.518;8.588;2023-03-03T16:30:31;0.90;;;0.80;;
19846;SDS011;10084;50.518;8.588;2023-03-03T16:35:42;1.00;;;1.00;;
19846;SDS011;10084;50.518;8.588;2023-03-03T16:38:27;0.80;;;0.80;;
19846;SDS011;10084;50.518;8.588;2023-03-03T16:48:00;0.67;;;0.63;;
19846;SDS011;10084;50.518;8.588;2023-03-03T16:52:39;0.80;;;0.80;;
19846;SDS011;10084;50.518;8.588;2023-03-03T16:55:24;0.73;;;0.73;;
19846;SDS011;10084;50.518;8.588;2023-03-03T16:58:10;2.17;;;1.10;;
19846;SDS011;10084;50.518;8.588;2023-03-03T17:01:07;0.93;;;0.90;;
19846;SDS011;10084;50.518;8.588;2023-03-03T17:04:12;1.23;;;0.93;;
19846;SDS011;10084;50.518;8.588;2023-03-03T17:06:58;1.00;;;0.90;;
19846;SDS011;10084;50.518;8.588;2023-03-03T17:09:50;1.00;;;0.60;;
19846;SDS011;10084;50.518;8.588;2023-03-03T17:12:46;2.40;;;0.70;;
19846;SDS011;10084;50.518;8.588;2023-03-03T17:18:11;0.70;;;0.60;;
19846;SDS011;10084;50.518;8.588;2023-03-03T17:20:50;2.67;;;0.87;;
19846;SDS011;10084;50.518;8.588;2023-03-03T17:26:09;0.53;;;0.53;;
19846;SDS011;10084;50.518;8.588;2023-03-03T17:32:51;0.60;;;0.60;;
19846;SDS011;10084;50.518;8.588;2023-03-03T17:38:18;0.60;;;0.60;;
19846;SDS011;10084;50.518;8.588;2023-03-03T17:41:03;0.87;;;0.60;;
19846;SDS011;10084;50.518;8.588;2023-03-03T17:43:40;1.67;;;0.63;;
19846;SDS011;10084;50.518;8.588;2023-03-03T17:46:26;3.90;;;0.63;;
19846;SDS011;10084;50.518;8.588;2023-03-03T17:49:28;4.87;;;0.80;;
19846;SDS011;10084;50.518;8.588;2023-03-03T17:52:20;0.70;;;0.70;;
19846;SDS011;10084;50.518;8.588;2023-03-03T17:55:19;0.40;;;0.40;;
19846;SDS011;10084;50.518;8.588;2023-03-03T17:58:20;0.57;;;0.50;;
19846;SDS011;10084;50.518;8.588;2023-03-03T18:01:06;0.70;;;0.60;;
19846;SDS011;10084;50.518;8.588;2023-03-03T18:06:34;0.67;;;0.67;;
19846;SDS011;10084;50.518;8.588;2023-03-03T18:17:45;0.50;;;0.50;;
19846;SDS011;10084;50.518;8.588;2023-03-03T18:20:29;0.60;;;0.60;;
19846;SDS011;10084;50.518;8.588;2023-03-03T18:25:58;1.90;;;0.70;;
19846;SDS011;10084;50.518;8.588;2023-03-03T18:28:37;1.37;;;0.67;;
19846;SDS011;10084;50.518;8.588;2023-03-03T18:31:19;0.70;;;0.63;;
19846;SDS011;10084;50.518;8.588;2023-03-03T18:34:02;0.70;;;0.60;;
19846;SDS011;10084;50.518;8.588;2023-03-03T18:39:00;1.20;;;0.73;;
19846;SDS011;10084;50.518;8.588;2023-03-03T18:41:32;0.83;;;0.77;;
19846;SDS011;10084;50.518;8.588;2023-03-03T18:44:26;0.80;;;0.60;;
19846;SDS011;10084;50.518;8.588;2023-03-03T18:46:54;0.77;;;0.77;;
19846;SDS011;10084;50.518;8.588;2023-03-03T18:55:01;0.90;;;0.90;;
19846;SDS011;10084;50.518;8.588;2023-03-03T18:57:34;1.37;;;1.00;;
19846;SDS011;10084;50.518;8.588;2023-03-03T19:00:13;0.83;;;0.80;;
19846;SDS011;10084;50.518;8.588;2023-03-03T19:02:40;0.90;;;0.90;;
19846;SDS011;10084;50.518;8.588;2023-03-03T19:05:17;0.70;;;0.67;;
19846;SDS011;10084;50.518;8.588;2023-03-03T19:07:51;0.60;;;0.60;;
19846;SDS011;10084;50.518;8.588;2023-03-03T19:13:07;1.50;;;0.90;;
19846;SDS011;10084;50.518;8.588;2023-03-03T19:18:56;2.17;;;0.80;;
19846;SDS011;10084;50.518;8.588;2023-03-03T19:23:58;0.90;;;0.80;;
19846;SDS011;10084;50.518;8.588;2023-03-03T19:26:46;1.07;;;0.97;;
19846;SDS011;10084;50.518;8.588;2023-03-03T19:48:34;1.00;;;0.90;;
19846;SDS011;10084;50.518;8.588;2023-03-03T19:51:24;1.03;;;0.97;;
19846;SDS011;10084;50.518;8.588;2023-03-03T19:54:12;1.43;;;1.10;;
19846;SDS011;10084;50.518;8.588;2023-03-03T19:56:49;1.13;;;0.93;;
19846;SDS011;10084;50.518;8.588;2023-03-03T20:07:31;1.27;;;1.13;;
19846;SDS011;10084;50.518;8.588;2023-03-03T20:10:49;0.83;;;0.80;;
19846;SDS011;10084;50.518;8.588;2023-03-03T20:16:11;0.83;;;0.80;;
19846;SDS011;10084;50.518;8.588;2023-03-03T20:21:42;0.80;;;0.80;;
19846;SDS011;10084;50.518;8.588;2023-03-03T20:26:59;0.70;;;0.70;;
19846;SDS011;10084;50.518;8.588;2023-03-03T20:29:55;1.03;;;1.00;;
19846;SDS011;10084;50.518;8.588;2023-03-03T20:41:53;1.27;;;1.17;;
19846;SDS011;10084;50.518;8.588;2023-03-03T20:49:48;1.37;;;1.00;;
19846;SDS011;10084;50.518;8.588;2023-03-03T20:52:24;0.93;;;0.90;;
19846;SDS011;10084;50.518;8.588;2023-03-03T20:55:27;0.60;;;0.60;;
19846;SDS011;10084;50.518;8.588;2023-03-03T21:11:06;1.30;;;1.20;;
19846;SDS011;10084;50.518;8.588;2023-03-03T21:13:33;1.10;;;1.10;;
19846;SDS011;10084;50.518;8.588;2023-03-03T21:16:50;1.00;;;0.90;;
19846;SDS011;10084;50.518;8.588;2023-03-03T21:19:06;1.17;;;1.07;;
19846;SDS011;10084;50.518;8.588;2023-03-03T21:21:39;0.87;;;0.83;;
19846;SDS011;10084;50.518;8.588;2023-03-03T21:24:09;1.33;;;1.23;;
19846;SDS011;10084;50.518;8.588;2023-03-03T21:29:29;1.03;;;0.83;;
19846;SDS011;10084;50.518;8.588;2023-03-03T21:31:57;1.90;;;1.80;;
19846;SDS011;10084;50.518;8.588;2023-03-03T21:34:29;1.60;;;1.40;;
19846;SDS011;10084;50.518;8.588;2023-03-03T21:37:01;1.77;;;1.10;;
19846;SDS011;10084;50.518;8.588;2023-03-03T21:39:33;1.27;;;1.07;;
19846;SDS011;10084;50.518;8.588;2023-03-03T21:42:01;1.20;;;1.10;;
19846;SDS011;10084;50.518;8.588;2023-03-03T21:44:31;1.30;;;1.20;;
19846;SDS011;10084;50.518;8.588;2023-03-03T21:46:59;1.40;;;1.30;;
19846;SDS011;10084;50.518;8.588;2023-03-03T21:49:26;1.47;;;1.20;;
19846;SDS011;10084;50.518;8.588;2023-03-03T21:51:53;1.00;;;0.90;;
19846;SDS011;10084;50.518;8.588;2023-03-03T21:54:19;1.20;;;1.10;;
19846;SDS011;10084;50.518;8.588;2023-03-03T21:56:45;1.30;;;1.20;;
19846;SDS011;10084;50.518;8.588;2023-03-03T21:59:12;1.60;;;1.43;;
